Airfield :
LOGIN :

Register | Disclaimer

   EN    FR    IT 

 










Legend :    VFR   Marginal VFR   IFR   Intensive IFR   Very Intensive IFR
Visi :
Ceiling :
>= 8 km
>= 3000ft
5 to 8 km
1000 to 3000 ft
1500m to 5 km
500 to 1000 ft
800 to 1500m
200 to 500 ft
< 800m
< 200 ft
Symbols :   Thunderstorms  Fog  Heavy snow  Heavy precipitations  Wind > 20 kt
SIGMETs :     Misc.  Thunderstorms  Icing  Turbulence  Mountain Waves  Volcanic Ashes






- Airport Elevation : 1504 ft
- IATA code : PNA


LEPP - Noain Pamplona

CURRENT METAR :
  • 271300Z 01014KT 340V040 9999 FEW038 BKN046 23/14 Q1023

EXPIRED METARs :
  • 271230Z 33009KT 280V010 9999 BKN046 24/14 Q1023
  • 271200Z 32011KT 280V350 9999 BKN046 24/13 Q1023
  • 271130Z 30007KT 240V010 9999 BKN046 24/13 Q1022
  • 271100Z 32005KT 9999 FEW040 24/12 Q1023
  • 271030Z VRB02KT 9999 FEW050 23/12 Q1023

TAF AMD TAF LEPP
Valid from the 27 at 09:00 until the 28 at 09:00 UTC


270845Z 2709/2809 VRB05KT CAVOK TX25/2715Z TN10/2806Z
BECMG 2710/2712 34012KT
PROB30
TEMPO 2714/2718 34015G25KT BKN010
BECMG 2802/2804 VRB03KT
PROB30
TEMPO 2805/2808 3000 BR BKN010



MET'MAP, your aeronautical weather chart ! - Copyright ORBIFLY December 2007 - Disclaimer

ORBIFLY MET'MAP TEAM :

Programming & Development : Alexandra Zaïnal
Concept & original design : Baudouin d'Aumeries
Assistance for programming : Marc-Olivier Méhu
Technical & hardware support : Manuel Goepfert

Contact : metmap@orbifly.com




SOURCES & CREDITS :

   NOAA